Time;durP1;ratioP1;P1;durP2;ratioP2;P2;SDS_P1;SDS_P2;PMS_P1;PMS_P2;Temp;Humidity;BMP_temperature;BMP_pressure;BME280_temperature;BME280_humidity;BME280_pressure;Samples;Min_cycle;Max_cycle;Signal;HPM_P1;HPM_P2
2023/02/04 00:02:04;;;;;;;;;;;;;;;;;;5044360;28;4627;-65
2023/02/04 00:04:29;;;;;;;;;;;;;;;;;;5047540;28;1076;-65
2023/02/04 00:06:54;;;;;;;;;;;;;;;;;;5046612;28;4472;-67
2023/02/04 00:09:19;;;;;;;;;;;;;;;;;;5045904;28;4647;-65
2023/02/04 00:11:45;;;;;;;;;;;;;;;;;;5045987;28;4999;-66
2023/02/04 00:14:10;;;;;;;;;;;;;;;;;;5044558;28;5124;-65
2023/02/04 00:16:35;;;;;;;;;;;;;;;;;;5049823;28;1159;-64
2023/02/04 00:19:00;;;;;;;;;;;;;;;;;;5044630;28;4973;-63
2023/02/04 00:21:26;;;;;;;;;;;;;;;;;;5043253;28;5034;-62
2023/02/04 00:23:51;;;;;;;;;;;;;;;;;;5044595;28;5695;-65
2023/02/04 00:26:16;;;;;;;;;;;;;;;;;;5041932;28;4666;-66
2023/02/04 00:28:42;;;;;;;;;;;;;;;;;;5042324;28;3228;-66
2023/02/04 00:31:07;;;;;;;;;;;;;;;;;;5043466;28;5078;-66
2023/02/04 00:33:32;;;;;;;;;;;;;;;;;;5043476;28;5489;-66
2023/02/04 00:35:57;;;;;;;;;;;;;;;;;;5042538;28;4533;-66
2023/02/04 00:38:23;;;;;;;;;;;;;;;;;;5040355;28;4664;-66
2023/02/04 00:40:48;;;;;;;;;;;;;;;;;;5049105;28;1093;-67
2023/02/04 00:43:13;;;;;;;;;;;;;;;;;;5045356;28;5115;-63
2023/02/04 00:45:38;;;;;;;;;;;;;;;;;;5045057;28;5004;-66
2023/02/04 00:48:04;;;;;;;;;;;;;;;;;;5046791;28;5022;-63
2023/02/04 00:50:29;;;;;;;;;;;;;;;;;;5050909;28;5011;-63
2023/02/04 00:52:54;;;;;;;;;;;;;;;;;;5050383;28;3223;-62
2023/02/04 00:55:20;;;;;;;;;;;;;;;;;;5047228;28;4973;-65
2023/02/04 00:57:47;;;;;;;;;;;;;;;;;;5046706;28;4519;-64
2023/02/04 01:00:13;;;;;;;;;;;;;;;;;;5049902;28;4538;-62
2023/02/04 01:02:41;;;;;;;;;;;;;;;;;;5050246;28;4466;-66
2023/02/04 01:05:07;;;;;;;;;;;;;;;;;;5046845;28;5082;-61
2023/02/04 01:07:32;;;;;;;;;;;;;;;;;;5046179;28;3431;-64
2023/02/04 01:09:57;;;;;;;;;;;;;;;;;;5043148;28;4830;-63
2023/02/04 01:12:26;;;;;;;;;;;;;;;;;;5043491;28;4670;-63
2023/02/04 01:14:51;;;;;;;;;;;;;;;;;;5044337;28;5050;-65
2023/02/04 01:17:18;;;;;;;;;;;;;;;;;;5047185;28;4510;-67
2023/02/04 01:19:43;;;;;;;;;;;;;;;;;;5045204;28;3248;-65
2023/02/04 01:22:08;;;;;;;;;;;;;;;;;;5049803;28;4446;-66
2023/02/04 01:24:33;;;;;;;;;;;;;;;;;;5049115;28;4646;-65
2023/02/04 01:26:59;;;;;;;;;;;;;;;;;;5045846;28;5044;-66
2023/02/04 01:29:24;;;;;;;;;;;;;;;;;;5045094;28;4763;-63
2023/02/04 01:31:50;;;;;;;;;;;;;;;;;;5045215;28;3601;-65
2023/02/04 01:34:15;;;;;;;;;;;;;;;;;;5046696;28;4706;-63
2023/02/04 01:36:40;;;;;;;;;;;;;;;;;;5041370;28;5072;-62
2023/02/04 01:39:05;;;;;;;;;;;;;;;;;;5047027;28;5147;-64
2023/02/04 01:41:31;;;;;;;;;;;;;;;;;;5046865;28;5134;-63
2023/02/04 01:43:56;;;;;;;;;;;;;;;;;;5048936;28;4596;-65
2023/02/04 01:46:21;;;;;;;;;;;;;;;;;;5049198;28;4655;-64
2023/02/04 01:48:46;;;;;;;;;;;;;;;;;;5049595;28;5546;-66
2023/02/04 01:51:12;;;;;;;;;;;;;;;;;;5049624;28;4924;-63
2023/02/04 01:53:38;;;;;;;;;;;;;;;;;;5080384;28;5026;-63
2023/02/04 01:56:10;;;;;;;;;;;;;;;;;;5042280;28;4920;-63
2023/02/04 01:58:36;;;;;;;;;;;;;;;;;;5040779;28;3239;-57
2023/02/04 02:01:01;;;;;;;;;;;;;;;;;;5044136;28;5047;-63
2023/02/04 02:03:26;;;;;;;;;;;;;;;;;;5043408;28;4713;-60
2023/02/04 02:05:52;;;;;;;;;;;;;;;;;;5046145;28;5053;-63
2023/02/04 02:08:17;;;;;;;;;;;;;;;;;;5045125;28;4712;-62
2023/02/04 02:10:43;;;;;;;;;;;;;;;;;;5046621;28;3169;-64
2023/02/04 02:13:09;;;;;;;;;;;;;;;;;;5054194;28;5033;-63
2023/02/04 02:15:34;;;;;;;;;;;;;;;;;;5042969;28;5085;-65
2023/02/04 02:17:59;;;;;;;;;;;;;;;;;;5048780;28;4582;-63
2023/02/04 02:20:25;;;;;;;;;;;;;;;;;;5040010;28;4674;-64
2023/02/04 02:22:50;;;;;;;;;;;;;;;;;;5050688;28;1144;-65
2023/02/04 02:25:15;;;;;;;;;;;;;;;;;;5048847;28;4920;-66
2023/02/04 02:27:41;;;;;;;;;;;;;;;;;;5047940;28;4958;-62
2023/02/04 02:30:06;;;;;;;;;;;;;;;;;;5047949;28;5144;-66
2023/02/04 02:32:32;;;;;;;;;;;;;;;;;;5045329;28;4662;-64
2023/02/04 02:34:57;;;;;;;;;;;;;;;;;;5047851;28;3222;-64
2023/02/04 02:37:22;;;;;;;;;;;;;;;;;;5042264;28;5042;-63
2023/02/04 02:39:48;;;;;;;;;;;;;;;;;;5043132;28;5132;-66
2023/02/04 02:42:14;;;;;;;;;;;;;;;;;;5046272;28;5041;-65
2023/02/04 02:44:39;;;;;;;;;;;;;;;;;;5045888;28;5061;-65
2023/02/04 02:47:04;;;;;;;;;;;;;;;;;;5043590;28;5160;-64
2023/02/04 02:49:30;;;;;;;;;;;;;;;;;;5043594;28;3227;-64
2023/02/04 02:51:55;;;;;;;;;;;;;;;;;;5045924;28;4578;-66
2023/02/04 02:54:21;;;;;;;;;;;;;;;;;;5047603;28;4908;-64
2023/02/04 02:56:47;;;;;;;;;;;;;;;;;;5076289;28;4942;-64
2023/02/04 02:59:15;;;;;;;;;;;;;;;;;;5043855;28;4982;-62
2023/02/04 03:01:40;;;;;;;;;;;;;;;;;;5047745;28;3355;-57
2023/02/04 03:04:06;;;;;;;;;;;;;;;;;;5045707;28;4977;-66
2023/02/04 03:06:31;;;;;;;;;;;;;;;;;;5046476;28;5435;-64
2023/02/04 03:08:56;;;;;;;;;;;;;;;;;;5042429;28;4840;-66
2023/02/04 03:11:22;;;;;;;;;;;;;;;;;;5077437;28;5078;-60
2023/02/04 03:13:47;;;;;;;;;;;;;;;;;;5078928;28;3340;-66
2023/02/04 03:16:13;;;;;;;;;;;;;;;;;;5040779;28;5021;-60
2023/02/04 03:18:38;;;;;;;;;;;;;;;;;;5046947;28;4944;-63
2023/02/04 03:21:03;;;;;;;;;;;;;;;;;;5042293;28;5143;-66
2023/02/04 03:23:29;;;;;;;;;;;;;;;;;;5046757;28;4523;-66
2023/02/04 03:25:54;;;;;;;;;;;;;;;;;;5045900;28;3284;-66
2023/02/04 03:28:19;;;;;;;;;;;;;;;;;;5080258;28;4950;-62
2023/02/04 03:30:55;;;;;;;;;;;;;;;;;;5045667;28;5039;-62
2023/02/04 03:33:25;;;;;;;;;;;;;;;;;;5047455;28;5002;-64
2023/02/04 03:35:50;;;;;;;;;;;;;;;;;;5048211;28;4943;-64
2023/02/04 03:38:15;;;;;;;;;;;;;;;;;;5043515;28;5052;-64
2023/02/04 03:40:41;;;;;;;;;;;;;;;;;;5047086;28;3259;-59
2023/02/04 03:43:06;;;;;;;;;;;;;;;;;;5044736;28;5140;-65
2023/02/04 03:45:31;;;;;;;;;;;;;;;;;;5041792;28;5015;-66
2023/02/04 03:47:56;;;;;;;;;;;;;;;;;;5045046;28;4669;-67
2023/02/04 03:50:21;;;;;;;;;;;;;;;;;;5044920;28;4506;-67
2023/02/04 03:52:48;;;;;;;;;;;;;;;;;;5047195;28;1099;-67
2023/02/04 03:55:14;;;;;;;;;;;;;;;;;;5045889;28;4604;-64
2023/02/04 03:57:39;;;;;;;;;;;;;;;;;;5054804;28;4950;-65
2023/02/04 04:00:05;;;;;;;;;;;;;;;;;;5045541;28;4509;-63
2023/02/04 04:02:30;;;;;;;;;;;;;;;;;;5043496;28;5116;-65
2023/02/04 04:04:55;;;;;;;;;;;;;;;;;;5040944;28;3230;-64
2023/02/04 04:07:20;;;;;;;;;;;;;;;;;;5039387;28;4512;-64
2023/02/04 04:09:46;;;;;;;;;;;;;;;;;;5043302;28;4437;-66
2023/02/04 04:12:11;;;;;;;;;;;;;;;;;;5042637;28;5121;-63
2023/02/04 04:14:36;;;;;;;;;;;;;;;;;;5073308;28;5103;-66
2023/02/04 04:17:01;;;;;;;;;;;;;;;;;;5075201;28;4888;-62
2023/02/04 04:19:27;;;;;;;;;;;;;;;;;;5047020;28;3422;-65
2023/02/04 04:21:52;;;;;;;;;;;;;;;;;;5044435;28;5375;-64
2023/02/04 04:24:17;;;;;;;;;;;;;;;;;;5046760;28;4504;-66
2023/02/04 04:26:42;;;;;;;;;;;;;;;;;;5049760;28;4613;-65
2023/02/04 04:29:08;;;;;;;;;;;;;;;;;;5048541;28;5088;-65
2023/02/04 04:31:33;;;;;;;;;;;;;;;;;;5047433;28;3235;-65
2023/02/04 04:33:58;;;;;;;;;;;;;;;;;;5051298;28;4433;-67
2023/02/04 04:36:23;;;;;;;;;;;;;;;;;;5048627;28;5108;-67
2023/02/04 04:38:49;;;;;;;;;;;;;;;;;;5052898;28;5007;-66
2023/02/04 04:41:14;;;;;;;;;;;;;;;;;;5048381;28;4483;-65
2023/02/04 04:43:39;;;;;;;;;;;;;;;;;;5051463;28;4764;-65
2023/02/04 04:46:05;;;;;;;;;;;;;;;;;;5047599;28;4993;-62
2023/02/04 04:48:30;;;;;;;;;;;;;;;;;;5043592;28;4896;-63
2023/02/04 04:50:55;;;;;;;;;;;;;;;;;;5043611;28;4589;-64
2023/02/04 04:53:20;;;;;;;;;;;;;;;;;;5045065;28;5079;-64
2023/02/04 04:55:46;;;;;;;;;;;;;;;;;;5047604;28;1083;-65
2023/02/04 04:58:11;;;;;;;;;;;;;;;;;;5048004;28;4917;-63
2023/02/04 05:00:36;;;;;;;;;;;;;;;;;;5047013;28;4421;-59
2023/02/04 05:03:02;;;;;;;;;;;;;;;;;;5046362;28;5315;-63
2023/02/04 05:05:27;;;;;;;;;;;;;;;;;;5049009;28;5039;-64
2023/02/04 05:07:52;;;;;;;;;;;;;;;;;;5048725;28;3448;-62
2023/02/04 05:10:18;;;;;;;;;;;;;;;;;;5043244;28;5025;-64
2023/02/04 05:12:43;;;;;;;;;;;;;;;;;;5046092;28;5136;-64
2023/02/04 05:15:08;;;;;;;;;;;;;;;;;;5050349;28;5513;-63
2023/02/04 05:17:33;;;;;;;;;;;;;;;;;;5076952;28;5421;-67
2023/02/04 05:19:59;;;;;;;;;;;;;;;;;;5045239;28;4724;-66
2023/02/04 05:22:24;;;;;;;;;;;;;;;;;;5047630;28;3385;-60
2023/02/04 05:24:49;;;;;;;;;;;;;;;;;;5044385;28;5041;-66
2023/02/04 05:27:14;;;;;;;;;;;;;;;;;;5047691;28;5251;-64
2023/02/04 05:29:40;;;;;;;;;;;;;;;;;;5049286;28;5011;-65
2023/02/04 05:32:05;;;;;;;;;;;;;;;;;;5046354;28;4990;-65
2023/02/04 05:34:30;;;;;;;;;;;;;;;;;;5050581;28;3215;-65
2023/02/04 05:36:55;;;;;;;;;;;;;;;;;;5045913;28;4829;-65
2023/02/04 05:39:21;;;;;;;;;;;;;;;;;;5048554;28;4576;-65
2023/02/04 05:41:46;;;;;;;;;;;;;;;;;;5042921;28;4981;-64
2023/02/04 05:44:12;;;;;;;;;;;;;;;;;;5044003;28;4588;-63
2023/02/04 05:46:38;;;;;;;;;;;;;;;;;;5043433;28;3373;-64
2023/02/04 05:49:03;;;;;;;;;;;;;;;;;;5046795;28;5101;-64
2023/02/04 05:51:28;;;;;;;;;;;;;;;;;;5046121;28;4501;-66
2023/02/04 05:53:53;;;;;;;;;;;;;;;;;;5044553;28;5041;-64
2023/02/04 05:56:19;;;;;;;;;;;;;;;;;;5047432;28;5051;-65
2023/02/04 05:58:44;;;;;;;;;;;;;;;;;;5050733;28;1914;-65
2023/02/04 06:01:09;;;;;;;;;;;;;;;;;;5047374;28;4592;-65
2023/02/04 06:03:35;;;;;;;;;;;;;;;;;;5047025;28;5110;-64
2023/02/04 06:06:00;;;;;;;;;;;;;;;;;;5042986;28;5050;-66
2023/02/04 06:08:25;;;;;;;;;;;;;;;;;;5044751;28;5704;-65
2023/02/04 06:10:50;;;;;;;;;;;;;;;;;;5047246;28;3486;-67
2023/02/04 06:13:16;;;;;;;;;;;;;;;;;;5044884;28;4670;-67
2023/02/04 06:15:41;;;;;;;;;;;;;;;;;;5048852;28;4630;-57
2023/02/04 06:18:06;;;;;;;;;;;;;;;;;;5049678;28;4984;-67
2023/02/04 06:20:32;;;;;;;;;;;;;;;;;;5048193;28;5097;-66
2023/02/04 06:22:57;;;;;;;;;;;;;;;;;;5048486;28;3405;-66
2023/02/04 06:25:23;;;;;;;;;;;;;;;;;;5045333;28;4582;-64
2023/02/04 06:27:48;;;;;;;;;;;;;;;;;;5049227;28;5072;-64
2023/02/04 06:30:14;;;;;;;;;;;;;;;;;;5042120;28;5194;-62
2023/02/04 06:32:39;;;;;;;;;;;;;;;;;;5038928;28;5289;-61
2023/02/04 06:35:05;;;;;;;;;;;;;;;;;;5046385;28;5117;-65
2023/02/04 06:37:30;;;;;;;;;;;;;;;;;;5032207;28;3552;-63
2023/02/04 06:39:56;;;;;;;;;;;;;;;;;;5035749;28;5263;-64
2023/02/04 06:42:21;;;;;;;;;;;;;;;;;;5042781;28;5219;-59
2023/02/04 06:44:47;;;;;;;;;;;;;;;;;;5042610;28;5390;-59
2023/02/04 06:47:12;;;;;;;;;;;;;;;;;;5041568;28;4933;-69
2023/02/04 06:49:37;;;;;;;;;;;;;;;;;;5050564;28;3319;-71
2023/02/04 06:52:03;;;;;;;;;;;;;;;;;;5046156;28;4896;-66
2023/02/04 06:54:28;;;;;;;;;;;;;;;;;;5044502;28;4478;-67
2023/02/04 06:56:53;;;;;;;;;;;;;;;;;;5041286;28;5053;-69
2023/02/04 06:59:18;;;;;;;;;;;;;;;;;;5044933;28;5087;-66
2023/02/04 07:01:44;;;;;;;;;;;;;;;;;;5046077;28;3117;-66
2023/02/04 07:04:09;;;;;;;;;;;;;;;;;;5041837;28;4653;-63
2023/02/04 07:06:34;;;;;;;;;;;;;;;;;;5039647;28;5148;-63
2023/02/04 07:08:59;;;;;;;;;;;;;;;;;;5047268;28;5027;-62
2023/02/04 07:11:25;;;;;;;;;;;;;;;;;;5046443;28;4893;-62
2023/02/04 07:13:50;;;;;;;;;;;;;;;;;;5046069;28;3066;-66
2023/02/04 07:16:15;;;;;;;;;;;;;;;;;;5045645;28;4992;-60
2023/02/04 07:18:40;;;;;;;;;;;;;;;;;;5043442;28;5177;-59
2023/02/04 07:21:06;;;;;;;;;;;;;;;;;;5041647;28;5293;-62
2023/02/04 07:23:31;;;;;;;;;;;;;;;;;;5055249;28;4637;-65
2023/02/04 07:25:58;;;;;;;;;;;;;;;;;;5048693;28;2132;-65
2023/02/04 07:28:23;;;;;;;;;;;;;;;;;;5044037;28;5153;-65
2023/02/04 07:30:49;;;;;;;;;;;;;;;;;;5045665;28;4655;-68
2023/02/04 07:33:14;;;;;;;;;;;;;;;;;;5045289;28;5022;-66
2023/02/04 07:35:39;;;;;;;;;;;;;;;;;;5046219;28;5094;-63
2023/02/04 07:38:04;;;;;;;;;;;;;;;;;;5042594;28;4558;-64
2023/02/04 07:40:30;;;;;;;;;;;;;;;;;;5042615;28;3716;-65
2023/02/04 07:42:55;;;;;;;;;;;;;;;;;;5045628;28;5268;-66
2023/02/04 07:45:20;;;;;;;;;;;;;;;;;;5038476;28;5022;-65
2023/02/04 07:47:45;;;;;;;;;;;;;;;;;;5044036;28;4962;-69
2023/02/04 07:50:11;;;;;;;;;;;;;;;;;;5042897;28;5044;-66
2023/02/04 07:52:36;;;;;;;;;;;;;;;;;;5044130;28;1145;-64
2023/02/04 07:55:01;;;;;;;;;;;;;;;;;;5048151;28;5016;-65
2023/02/04 07:57:28;;;;;;;;;;;;;;;;;;5047772;28;5046;-64
2023/02/04 07:59:53;;;;;;;;;;;;;;;;;;5046148;28;5001;-63
2023/02/04 08:02:18;;;;;;;;;;;;;;;;;;5045620;28;4570;-66
2023/02/04 08:04:43;;;;;;;;;;;;;;;;;;5042875;28;1263;-64
2023/02/04 08:07:09;;;;;;;;;;;;;;;;;;5038756;28;5087;-63
2023/02/04 08:09:34;;;;;;;;;;;;;;;;;;5048398;28;5060;-62
2023/02/04 08:11:59;;;;;;;;;;;;;;;;;;5047428;28;5431;-65
2023/02/04 08:14:25;;;;;;;;;;;;;;;;;;5041879;28;5157;-65
2023/02/04 08:16:50;;;;;;;;;;;;;;;;;;5047582;28;2313;-68
2023/02/04 08:19:17;;;;;;;;;;;;;;;;;;5046219;28;4470;-63
2023/02/04 08:21:46;;;;;;;;;;;;;;;;;;5047705;28;5074;-65
2023/02/04 08:24:11;;;;;;;;;;;;;;;;;;5041286;28;5672;-56
2023/02/04 08:26:36;;;;;;;;;;;;;;;;;;5047497;28;5091;-66
2023/02/04 08:29:02;;;;;;;;;;;;;;;;;;5042588;28;5049;-66
2023/02/04 08:31:27;;;;;;;;;;;;;;;;;;5046283;28;3279;-62
2023/02/04 08:33:52;;;;;;;;;;;;;;;;;;5044728;28;4909;-66
2023/02/04 08:36:18;;;;;;;;;;;;;;;;;;5045126;28;5103;-67
2023/02/04 08:38:43;;;;;;;;;;;;;;;;;;5043846;28;5112;-66
2023/02/04 08:41:08;;;;;;;;;;;;;;;;;;5038991;28;5150;-68
2023/02/04 08:43:34;;;;;;;;;;;;;;;;;;5052280;28;4652;-66
2023/02/04 08:45:59;;;;;;;;;;;;;;;;;;5077827;28;5159;-68
2023/02/04 08:48:24;;;;;;;;;;;;;;;;;;5046320;28;5122;-62
2023/02/04 08:50:49;;;;;;;;;;;;;;;;;;5044562;28;5032;-66
2023/02/04 08:53:15;;;;;;;;;;;;;;;;;;5045999;28;5095;-67
2023/02/04 08:55:40;;;;;;;;;;;;;;;;;;5043997;28;3453;-68
2023/02/04 08:58:05;;;;;;;;;;;;;;;;;;5058111;28;5187;-63
2023/02/04 09:00:31;;;;;;;;;;;;;;;;;;5047145;28;5123;-67
2023/02/04 09:02:56;;;;;;;;;;;;;;;;;;5042959;28;5363;-68
2023/02/04 09:05:21;;;;;;;;;;;;;;;;;;5049017;28;4688;-67
2023/02/04 09:07:46;;;;;;;;;;;;;;;;;;5047315;28;1730;-66
2023/02/04 09:10:12;;;;;;;;;;;;;;;;;;5046516;28;4602;-65
2023/02/04 09:12:37;;;;;;;;;;;;;;;;;;5050504;28;4907;-66
2023/02/04 09:15:02;;;;;;;;;;;;;;;;;;5049140;28;5099;-67
2023/02/04 09:17:28;;;;;;;;;;;;;;;;;;5043227;28;4997;-69
2023/02/04 09:19:53;;;;;;;;;;;;;;;;;;5051370;28;1906;-66
2023/02/04 09:22:18;;;;;;;;;;;;;;;;;;5046561;28;4970;-65
2023/02/04 09:24:43;;;;;;;;;;;;;;;;;;5044737;28;4930;-67
2023/02/04 09:27:08;;;;;;;;;;;;;;;;;;5046918;28;5109;-67
2023/02/04 09:29:34;;;;;;;;;;;;;;;;;;5048532;28;4949;-66
2023/02/04 09:31:59;;;;;;;;;;;;;;;;;;5049922;28;5158;-65
2023/02/04 09:34:24;;;;;;;;;;;;;;;;;;5049088;28;1052;-65
2023/02/04 09:36:49;;;;;;;;;;;;;;;;;;5046585;28;5019;-65
2023/02/04 09:39:15;;;;;;;;;;;;;;;;;;5044467;28;4460;-66
2023/02/04 09:41:40;;;;;;;;;;;;;;;;;;5045235;28;5127;-68
2023/02/04 09:44:12;;;;;;;;;;;;;;;;;;5045535;28;4650;-66
2023/02/04 09:46:38;;;;;;;;;;;;;;;;;;5043690;28;3274;-65
2023/02/04 09:49:03;;;;;;;;;;;;;;;;;;5040974;28;4554;-65
2023/02/04 09:51:29;;;;;;;;;;;;;;;;;;5049894;28;5102;-68
2023/02/04 09:53:57;;;;;;;;;;;;;;;;;;5049081;28;5148;-66
2023/02/04 09:56:22;;;;;;;;;;;;;;;;;;5080662;28;4878;-67
2023/02/04 09:58:47;;;;;;;;;;;;;;;;;;5047720;28;3013;-65
2023/02/04 10:01:14;;;;;;;;;;;;;;;;;;5075352;28;4426;-65
2023/02/04 10:03:45;;;;;;;;;;;;;;;;;;5050382;28;4878;-66
2023/02/04 10:06:10;;;;;;;;;;;;;;;;;;5048224;28;4501;-66
2023/02/04 10:08:35;;;;;;;;;;;;;;;;;;5049722;28;5485;-67
2023/02/04 10:11:01;;;;;;;;;;;;;;;;;;5048455;28;5053;-63
2023/02/04 10:13:30;;;;;;;;;;;;;;;;;;5043723;28;1158;-66
2023/02/04 10:15:55;;;;;;;;;;;;;;;;;;5076016;28;4645;-66
2023/02/04 10:18:31;;;;;;;;;;;;;;;;;;5082354;28;5645;-60
2023/02/04 10:21:00;;;;;;;;;;;;;;;;;;5042857;28;4922;-62
2023/02/04 10:23:25;;;;;;;;;;;;;;;;;;5080665;28;4553;-58
2023/02/04 10:25:50;;;;;;;;;;;;;;;;;;5048817;28;1248;-61
2023/02/04 10:28:17;;;;;;;;;;;;;;;;;;5047202;28;5094;-61
2023/02/04 10:30:42;;;;;;;;;;;;;;;;;;5046202;28;5122;-60
2023/02/04 10:33:14;;;;;;;;;;;;;;;;;;5050745;28;4680;-60
2023/02/04 10:35:43;;;;;;;;;;;;;;;;;;5046920;28;4645;-60
2023/02/04 10:38:09;;;;;;;;;;;;;;;;;;5042847;28;5024;-60
2023/02/04 10:40:34;;;;;;;;;;;;;;;;;;5048515;28;1974;-60
2023/02/04 10:43:20;;;;;;;;;;;;;;;;;;5042958;28;4644;-59
2023/02/04 10:45:46;;;;;;;;;;;;;;;;;;5041765;28;5708;-64
2023/02/04 10:48:14;;;;;;;;;;;;;;;;;;5047435;28;5016;-61
2023/02/04 10:50:39;;;;;;;;;;;;;;;;;;5046925;28;5469;-64
2023/02/04 10:55:50;;;;;;;;;;;;;;;;;;5076101;28;1030;-66
2023/02/04 10:58:19;;;;;;;;;;;;;;;;;;5048240;28;4935;-66
2023/02/04 11:00:44;;;;;;;;;;;;;;;;;;5048572;28;5008;-65
2023/02/04 11:03:10;;;;;;;;;;;;;;;;;;5047986;28;4471;-62
2023/02/04 11:05:36;;;;;;;;;;;;;;;;;;5055396;28;5071;-67
2023/02/04 11:08:01;;;;;;;;;;;;;;;;;;5046850;28;5019;-71
2023/02/04 11:10:27;;;;;;;;;;;;;;;;;;5048755;28;1202;-67
2023/02/04 11:12:53;;;;;;;;;;;;;;;;;;5080643;28;4955;-68
2023/02/04 11:15:37;;;;;;;;;;;;;;;;;;5048063;28;5034;-67
2023/02/04 11:18:07;;;;;;;;;;;;;;;;;;5047687;28;4512;-70
2023/02/04 11:20:32;;;;;;;;;;;;;;;;;;5038749;28;4743;-68
2023/02/04 11:23:12;;;;;;;;;;;;;;;;;;5045939;28;5340;-63
2023/02/04 11:25:39;;;;;;;;;;;;;;;;;;5048330;28;974;-59
2023/02/04 11:28:14;;;;;;;;;;;;;;;;;;5056848;28;4933;-60
2023/02/04 11:30:39;;;;;;;;;;;;;;;;;;5046535;28;4850;-58
2023/02/04 11:33:05;;;;;;;;;;;;;;;;;;5045327;28;4479;-59
2023/02/04 11:35:30;;;;;;;;;;;;;;;;;;5044411;28;4496;-59
2023/02/04 11:37:56;;;;;;;;;;;;;;;;;;5047546;28;1515;-59
2023/02/04 11:40:22;;;;;;;;;;;;;;;;;;5043103;28;5062;-58
2023/02/04 11:42:47;;;;;;;;;;;;;;;;;;5077390;28;5031;-57
2023/02/04 11:45:33;;;;;;;;;;;;;;;;;;5079899;28;5019;-58
2023/02/04 11:48:00;;;;;;;;;;;;;;;;;;5047088;28;5036;-58
2023/02/04 11:50:27;;;;;;;;;;;;;;;;;;5072566;28;4826;-57
2023/02/04 11:52:53;;;;;;;;;;;;;;;;;;5044408;28;3248;-57
2023/02/04 11:55:18;;;;;;;;;;;;;;;;;;5046333;28;4978;-58
2023/02/04 11:57:44;;;;;;;;;;;;;;;;;;5046352;28;4904;-59
2023/02/04 12:00:37;;;;;;;;;;;;;;;;;;5047297;28;4906;-57
2023/02/04 12:03:09;;;;;;;;;;;;;;;;;;5040290;28;4709;-56
2023/02/04 12:05:44;;;;;;;;;;;;;;;;;;5069337;28;5150;-58
2023/02/04 12:08:29;;;;;;;;;;;;;;;;;;5039403;28;5064;-59
2023/02/04 12:10:59;;;;;;;;;;;;;;;;;;5039745;28;3142;-59
2023/02/04 12:13:24;;;;;;;;;;;;;;;;;;5043858;28;5001;-59
2023/02/04 12:15:59;;;;;;;;;;;;;;;;;;5047305;28;4594;-60
2023/02/04 12:18:26;;;;;;;;;;;;;;;;;;5044546;28;5238;-55
2023/02/04 12:20:52;;;;;;;;;;;;;;;;;;5040299;28;5065;-57
2023/02/04 12:23:17;;;;;;;;;;;;;;;;;;5044793;28;4643;-57
2023/02/04 12:25:42;;;;;;;;;;;;;;;;;;5042683;28;1237;-57
2023/02/04 12:28:08;;;;;;;;;;;;;;;;;;5045877;28;4587;-55
2023/02/04 12:30:33;;;;;;;;;;;;;;;;;;5045560;28;4494;-56
2023/02/04 12:32:58;;;;;;;;;;;;;;;;;;5046858;28;5068;-58
2023/02/04 12:35:23;;;;;;;;;;;;;;;;;;5044907;28;5101;-64
2023/02/04 12:37:49;;;;;;;;;;;;;;;;;;5045204;28;3236;-65
2023/02/04 12:40:15;;;;;;;;;;;;;;;;;;5045544;28;4466;-67
2023/02/04 12:42:40;;;;;;;;;;;;;;;;;;5048722;28;5083;-67
2023/02/04 12:45:06;;;;;;;;;;;;;;;;;;5050143;28;5032;-67
2023/02/04 12:47:31;;;;;;;;;;;;;;;;;;5048286;28;4882;-67
2023/02/04 12:49:56;;;;;;;;;;;;;;;;;;5045922;28;3368;-67
2023/02/04 12:52:22;;;;;;;;;;;;;;;;;;5050677;28;4941;-67
2023/02/04 12:54:47;;;;;;;;;;;;;;;;;;5078965;28;4920;-64
2023/02/04 12:57:18;;;;;;;;;;;;;;;;;;5049828;28;5031;-64
2023/02/04 12:59:44;;;;;;;;;;;;;;;;;;5050087;28;5061;-61
2023/02/04 13:02:09;;;;;;;;;;;;;;;;;;5046584;28;4938;-61
2023/02/04 13:04:35;;;;;;;;;;;;;;;;;;5080396;28;2147;-59
2023/02/04 13:07:00;;;;;;;;;;;;;;;;;;5050718;28;5090;-64
2023/02/04 13:09:26;;;;;;;;;;;;;;;;;;5048212;28;5118;-61
2023/02/04 13:11:51;;;;;;;;;;;;;;;;;;5047957;28;4878;-62
2023/02/04 13:14:17;;;;;;;;;;;;;;;;;;5049401;28;5019;-61
2023/02/04 13:16:42;;;;;;;;;;;;;;;;;;5050981;28;1384;-61
2023/02/04 13:19:07;;;;;;;;;;;;;;;;;;5048020;28;4592;-61
2023/02/04 13:21:33;;;;;;;;;;;;;;;;;;5046868;28;4631;-61
2023/02/04 13:23:58;;;;;;;;;;;;;;;;;;5047648;28;4468;-61
2023/02/04 13:26:24;;;;;;;;;;;;;;;;;;5065165;28;5183;-61
2023/02/04 13:28:49;;;;;;;;;;;;;;;;;;5050100;28;1330;-61
2023/02/04 13:31:14;;;;;;;;;;;;;;;;;;5038362;28;5101;-61
2023/02/04 13:33:39;;;;;;;;;;;;;;;;;;5042432;28;4979;-61
2023/02/04 13:36:05;;;;;;;;;;;;;;;;;;5041286;28;4791;-60
2023/02/04 13:38:30;;;;;;;;;;;;;;;;;;5044981;28;5015;-61
2023/02/04 13:40:55;;;;;;;;;;;;;;;;;;5046192;28;3524;-61
2023/02/04 13:43:21;;;;;;;;;;;;;;;;;;5045836;28;4889;-61
2023/02/04 13:45:47;;;;;;;;;;;;;;;;;;5049719;28;5556;-61
2023/02/04 13:48:13;;;;;;;;;;;;;;;;;;5047304;28;5202;-61
2023/02/04 13:50:38;;;;;;;;;;;;;;;;;;5047553;28;5133;-61
2023/02/04 13:53:03;;;;;;;;;;;;;;;;;;5043057;28;5101;-61
2023/02/04 13:55:29;;;;;;;;;;;;;;;;;;5045119;28;3341;-61
2023/02/04 13:57:54;;;;;;;;;;;;;;;;;;5080097;28;5131;-61
2023/02/04 14:00:19;;;;;;;;;;;;;;;;;;5043612;28;5264;-61
2023/02/04 14:02:45;;;;;;;;;;;;;;;;;;5044886;28;4483;-59
2023/02/04 14:05:10;;;;;;;;;;;;;;;;;;5037412;28;4801;-58
2023/02/04 14:07:35;;;;;;;;;;;;;;;;;;5048699;28;3539;-59
2023/02/04 14:10:01;;;;;;;;;;;;;;;;;;5045764;28;4418;-58
2023/02/04 14:12:26;;;;;;;;;;;;;;;;;;5050230;28;4981;-59
2023/02/04 14:14:51;;;;;;;;;;;;;;;;;;5049694;28;4991;-60
2023/02/04 14:17:16;;;;;;;;;;;;;;;;;;5044993;28;5233;-60
2023/02/04 14:19:42;;;;;;;;;;;;;;;;;;5053666;28;3389;-60
2023/02/04 14:22:07;;;;;;;;;;;;;;;;;;5033149;28;4809;-61
2023/02/04 14:24:33;;;;;;;;;;;;;;;;;;5047887;28;5129;-60
2023/02/04 14:26:58;;;;;;;;;;;;;;;;;;5046930;28;5018;-65
2023/02/04 14:29:24;;;;;;;;;;;;;;;;;;5047826;28;4463;-62
2023/02/04 14:31:49;;;;;;;;;;;;;;;;;;5048638;28;3577;-58
2023/02/04 14:34:14;;;;;;;;;;;;;;;;;;5049587;28;4938;-59
2023/02/04 14:36:39;;;;;;;;;;;;;;;;;;5047070;28;4955;-58
2023/02/04 14:39:05;;;;;;;;;;;;;;;;;;5042852;28;5477;-57
2023/02/04 14:41:30;;;;;;;;;;;;;;;;;;5043065;28;5001;-60
2023/02/04 14:43:56;;;;;;;;;;;;;;;;;;5049466;28;1208;-58
2023/02/04 14:46:21;;;;;;;;;;;;;;;;;;5044666;28;4958;-58
2023/02/04 14:48:46;;;;;;;;;;;;;;;;;;5042542;28;4524;-60
2023/02/04 14:51:12;;;;;;;;;;;;;;;;;;5049066;28;4459;-58
2023/02/04 14:53:37;;;;;;;;;;;;;;;;;;5047955;28;5023;-61
2023/02/04 14:56:03;;;;;;;;;;;;;;;;;;5043643;28;5254;-59
2023/02/04 14:58:28;;;;;;;;;;;;;;;;;;5043000;28;3349;-60
2023/02/04 15:00:54;;;;;;;;;;;;;;;;;;5040613;28;4668;-59
2023/02/04 15:03:19;;;;;;;;;;;;;;;;;;5041005;28;5184;-59
2023/02/04 15:05:44;;;;;;;;;;;;;;;;;;5074071;28;5132;-59
2023/02/04 15:08:10;;;;;;;;;;;;;;;;;;5045205;28;5035;-58
2023/02/04 15:10:35;;;;;;;;;;;;;;;;;;5044626;28;3492;-57
2023/02/04 15:13:00;;;;;;;;;;;;;;;;;;5038060;28;5067;-58
2023/02/04 15:15:26;;;;;;;;;;;;;;;;;;5047933;28;5156;-57
2023/02/04 15:17:51;;;;;;;;;;;;;;;;;;5045294;28;4457;-59
2023/02/04 15:20:16;;;;;;;;;;;;;;;;;;5041070;28;5213;-58
2023/02/04 15:22:42;;;;;;;;;;;;;;;;;;5052987;28;1131;-58
2023/02/04 15:25:07;;;;;;;;;;;;;;;;;;5039968;28;5040;-57
2023/02/04 15:27:32;;;;;;;;;;;;;;;;;;5042186;28;6013;-57
2023/02/04 15:29:58;;;;;;;;;;;;;;;;;;5044932;28;5034;-58
2023/02/04 15:32:23;;;;;;;;;;;;;;;;;;5046562;28;4992;-58
2023/02/04 15:34:48;;;;;;;;;;;;;;;;;;5040780;28;3698;-59
2023/02/04 15:37:13;;;;;;;;;;;;;;;;;;5037958;28;5236;-59
2023/02/04 15:39:42;;;;;;;;;;;;;;;;;;5046683;28;5242;-60
2023/02/04 15:42:07;;;;;;;;;;;;;;;;;;5041264;28;5041;-57
2023/02/04 15:44:32;;;;;;;;;;;;;;;;;;5036954;28;5042;-57
2023/02/04 15:46:58;;;;;;;;;;;;;;;;;;5044986;28;5065;-52
2023/02/04 15:49:23;;;;;;;;;;;;;;;;;;5039879;28;3355;-59
2023/02/04 15:51:48;;;;;;;;;;;;;;;;;;5042998;28;5051;-56
2023/02/04 15:54:14;;;;;;;;;;;;;;;;;;5045856;28;5124;-59
2023/02/04 15:56:39;;;;;;;;;;;;;;;;;;5046347;28;4561;-60
2023/02/04 15:59:04;;;;;;;;;;;;;;;;;;5047745;28;4961;-59
2023/02/04 16:01:29;;;;;;;;;;;;;;;;;;5047683;28;1109;-59
2023/02/04 16:03:55;;;;;;;;;;;;;;;;;;5035224;28;4924;-58
2023/02/04 16:06:23;;;;;;;;;;;;;;;;;;5043169;28;5049;-58
2023/02/04 16:08:49;;;;;;;;;;;;;;;;;;5042709;28;4958;-58
2023/02/04 16:11:14;;;;;;;;;;;;;;;;;;5039245;28;5059;-59
2023/02/04 16:13:39;;;;;;;;;;;;;;;;;;5044704;28;3439;-59
2023/02/04 16:16:05;;;;;;;;;;;;;;;;;;5039879;28;4513;-59
2023/02/04 16:18:30;;;;;;;;;;;;;;;;;;5034384;28;4869;-57
2023/02/04 16:20:55;;;;;;;;;;;;;;;;;;5044552;28;4516;-52
2023/02/04 16:23:20;;;;;;;;;;;;;;;;;;5044730;28;5149;-57
2023/02/04 16:25:46;;;;;;;;;;;;;;;;;;5047517;28;3182;-57
2023/02/04 16:28:11;;;;;;;;;;;;;;;;;;5044761;28;4904;-57
2023/02/04 16:30:38;;;;;;;;;;;;;;;;;;5046487;28;4841;-58
2023/02/04 16:33:03;;;;;;;;;;;;;;;;;;5044615;28;4911;-56
2023/02/04 16:35:28;;;;;;;;;;;;;;;;;;5040888;28;5159;-58
2023/02/04 16:37:53;;;;;;;;;;;;;;;;;;5046245;28;3485;-58
2023/02/04 16:40:19;;;;;;;;;;;;;;;;;;5049384;28;4559;-58
2023/02/04 16:42:44;;;;;;;;;;;;;;;;;;5043272;28;5145;-60
2023/02/04 16:45:09;;;;;;;;;;;;;;;;;;5078036;28;5454;-60
2023/02/04 16:47:35;;;;;;;;;;;;;;;;;;5045897;28;5173;-60
2023/02/04 16:50:00;;;;;;;;;;;;;;;;;;5046399;28;5143;-61
2023/02/04 16:52:28;;;;;;;;;;;;;;;;;;5080382;28;1167;-61
2023/02/04 16:54:54;;;;;;;;;;;;;;;;;;5044761;28;5137;-61
2023/02/04 16:57:19;;;;;;;;;;;;;;;;;;5045457;28;5155;-60